createdAt,value
2022-11-24T00:00:55.241Z,4.3
2022-11-24T00:06:50.744Z,4.8
2022-11-24T00:12:40.927Z,5.5
2022-11-24T00:18:32.288Z,6.3
2022-11-24T00:24:22.923Z,6.1
2022-11-24T00:30:12.682Z,4.6
2022-11-24T00:36:10.341Z,4.8
2022-11-24T00:42:01.070Z,5
2022-11-24T00:48:15.621Z,4.8
2022-11-24T01:01:04.814Z,8.4
2022-11-24T01:07:13.942Z,4.7
2022-11-24T01:13:38.142Z,8.5
2022-11-24T01:20:11.231Z,6.3
2022-11-24T01:52:30.478Z,5
2022-11-24T01:58:44.596Z,5.7
2022-11-24T02:05:00.119Z,5.5
2022-11-24T02:11:13.247Z,6
2022-11-24T02:23:58.979Z,4.6
2022-11-24T02:30:20.039Z,7
2022-11-24T02:36:31.595Z,5.4
2022-11-24T02:42:43.856Z,4.8
2022-11-24T02:48:34.617Z,4.9
2022-11-24T02:54:58.715Z,4.6
2022-11-24T03:01:40.001Z,5.4
2022-11-24T03:07:40.076Z,4.6
2022-11-24T03:13:52.374Z,4.9
2022-11-24T03:20:25.542Z,6.3
2022-11-24T03:32:55.165Z,5.9
2022-11-24T03:39:25.316Z,5.7
2022-11-24T03:46:02.044Z,5
2022-11-24T03:51:51.173Z,4.5
2022-11-24T03:58:06.614Z,4.7
2022-11-24T04:04:30.302Z,4.5
2022-11-24T04:10:39.033Z,4.4
2022-11-24T04:16:56.152Z,4.9
2022-11-24T04:22:47.694Z,4.5
2022-11-24T04:28:43.650Z,4.6
2022-11-24T04:34:45.345Z,4.6
2022-11-24T04:40:42.955Z,4.5
2022-11-24T04:46:37.911Z,4.3
2022-11-24T04:52:29.131Z,4.9
2022-11-24T04:58:22.056Z,4.5
2022-11-24T05:04:13.441Z,3.6
2022-11-24T05:10:09.977Z,4.7
2022-11-24T05:16:03.384Z,4
2022-11-24T05:22:06.084Z,4
2022-11-24T05:28:02.748Z,4.1
2022-11-24T05:34:20.449Z,5
2022-11-24T05:40:36.036Z,4.4
2022-11-24T05:47:09.615Z,6.6
2022-11-24T05:53:17.611Z,4.9
2022-11-24T05:59:17.363Z,4
2022-11-24T06:05:49.750Z,4.9
2022-11-24T06:12:08.227Z,3.8
2022-11-24T06:18:46.836Z,4
2022-11-24T06:25:18.686Z,3.2
2022-11-24T06:59:49.444Z,9.5
2022-11-24T07:06:09.377Z,6.9
2022-11-24T07:12:28.257Z,4.6
2022-11-24T07:18:51.551Z,3.8
2022-11-24T07:24:56.463Z,4.4
2022-11-24T07:31:21.765Z,5.8
2022-11-24T07:37:34.095Z,4.8
2022-11-24T07:43:54.795Z,6.5
2022-11-24T07:50:26.389Z,4.8
2022-11-24T07:56:51.496Z,5.3
2022-11-24T08:21:38.082Z,3.3
2022-11-24T08:27:35.177Z,3.6
2022-11-24T08:33:39.011Z,3.3
2022-11-24T08:39:35.458Z,3.6
2022-11-24T08:45:43.728Z,3.7
2022-11-24T08:51:46.704Z,4.2
2022-11-24T08:57:42.593Z,3.3
2022-11-24T09:03:35.977Z,3.3
2022-11-24T09:09:44.941Z,2.5
2022-11-24T09:16:13.216Z,2.6
2022-11-24T09:28:03.676Z,2.7
2022-11-24T09:34:17.176Z,2.3
2022-11-24T09:52:45.191Z,2.2
2022-11-24T09:59:19.149Z,2.8
2022-11-24T10:12:30.028Z,2.2
2022-11-24T10:18:51.903Z,2.2
2022-11-24T10:25:02.689Z,2.5
2022-11-24T10:31:24.016Z,2.5
2022-11-24T10:37:45.418Z,2.4
2022-11-24T10:43:56.651Z,2.5
2022-11-24T10:49:54.041Z,2.7
2022-11-24T11:02:15.127Z,2.3
2022-11-24T11:08:34.667Z,2.9
2022-11-24T11:15:12.084Z,2.4
2022-11-24T11:21:44.145Z,2.2
2022-11-24T11:46:15.067Z,2.3
2022-11-24T11:52:49.227Z,2.4
2022-11-24T11:59:18.429Z,2.5
2022-11-24T12:30:15.186Z,3
2022-11-24T12:36:13.293Z,2.5
2022-11-24T12:54:32.110Z,2.6
2022-11-24T13:00:30.108Z,3.5
2022-11-24T13:06:20.049Z,3.5
2022-11-24T13:12:14.577Z,2.7
2022-11-24T13:18:46.191Z,2.6
2022-11-24T13:24:42.021Z,2.1
2022-11-24T13:30:37.367Z,2.9
2022-11-24T13:36:41.730Z,2.9
2022-11-24T13:42:55.276Z,2.7
2022-11-24T13:48:55.675Z,2.7
2022-11-24T13:54:50.128Z,2.6
2022-11-24T14:01:08.419Z,2.9
2022-11-24T14:37:45.448Z,2.9
2022-11-24T14:44:05.462Z,2.5
2022-11-24T15:08:57.278Z,3.4
2022-11-24T15:14:50.984Z,2.9
2022-11-24T15:20:45.274Z,2.6
2022-11-24T15:26:48.940Z,3
2022-11-24T15:32:41.595Z,3.6
2022-11-24T15:38:33.040Z,3.8
2022-11-24T15:44:23.622Z,2.9
2022-11-24T15:50:12.511Z,3.1
2022-11-24T15:56:01.604Z,3.2
2022-11-24T16:01:57.010Z,3.1
2022-11-24T16:07:46.630Z,2.7
2022-11-24T16:13:36.087Z,3.9
2022-11-24T16:19:25.281Z,3.9
2022-11-24T16:25:15.718Z,4.7
2022-11-24T16:31:06.341Z,7.3
2022-11-24T16:36:57.085Z,15.3
2022-11-24T16:42:48.973Z,23.1
2022-11-24T16:48:41.773Z,7.7
2022-11-24T16:54:37.715Z,12.1
2022-11-24T17:00:28.579Z,7.7
2022-11-24T17:06:21.566Z,4
2022-11-24T17:12:13.186Z,5
2022-11-24T17:18:31.079Z,5.4
2022-11-24T17:24:21.128Z,5.1
2022-11-24T17:30:16.613Z,6.4
2022-11-24T17:36:07.166Z,5.7
2022-11-24T17:41:58.003Z,4.7
2022-11-24T17:47:57.024Z,4.1
2022-11-24T17:53:52.304Z,4.2
2022-11-24T17:59:53.181Z,3.9
2022-11-24T18:05:48.243Z,4.3
2022-11-24T18:11:42.068Z,4.4
2022-11-24T18:17:33.773Z,4.6
2022-11-24T18:23:27.133Z,4.3
2022-11-24T18:29:18.803Z,5.2
2022-11-24T18:35:08.464Z,4.7
2022-11-24T18:40:59.212Z,5.8
2022-11-24T18:46:50.177Z,4.8
2022-11-24T18:52:40.727Z,4.8
2022-11-24T18:58:29.271Z,4.8
2022-11-24T19:04:18.512Z,5.5
2022-11-24T19:10:08.557Z,4.4
2022-11-24T19:15:59.281Z,4.9
2022-11-24T19:21:49.759Z,4.5
2022-11-24T19:27:38.434Z,4.4
2022-11-24T19:33:33.012Z,4.7
2022-11-24T19:39:22.592Z,4.3
2022-11-24T19:45:11.861Z,5
2022-11-24T19:51:02.788Z,4.8
2022-11-24T19:56:55.487Z,5.7
2022-11-24T20:02:46.282Z,5.7
2022-11-24T20:08:37.004Z,5.5
2022-11-24T20:14:26.967Z,4.8
2022-11-24T20:20:16.174Z,5.2
2022-11-24T20:26:05.432Z,5.5
2022-11-24T20:31:56.714Z,6.7
2022-11-24T20:37:47.882Z,6.4
2022-11-24T20:43:49.927Z,5.1
2022-11-24T20:49:38.986Z,5.5
2022-11-24T20:55:31.083Z,5.6
2022-11-24T21:01:23.764Z,10.1
2022-11-24T21:07:14.298Z,5.5
2022-11-24T21:13:05.074Z,5.9
2022-11-24T21:18:55.457Z,5.7
2022-11-24T21:24:45.798Z,5.5
2022-11-24T21:30:36.727Z,5.6
2022-11-24T21:36:27.640Z,5
2022-11-24T21:42:19.296Z,5.3
2022-11-24T21:48:10.154Z,5.5
2022-11-24T21:54:01.156Z,5.9
2022-11-24T21:59:53.066Z,5.1
2022-11-24T22:05:43.633Z,5.3
2022-11-24T22:11:33.795Z,5.3
2022-11-24T22:17:22.946Z,6.4
2022-11-24T22:23:14.270Z,5.8
2022-11-24T22:29:05.202Z,4.8
2022-11-24T22:34:56.243Z,5.1
2022-11-24T22:40:46.441Z,6.2
2022-11-24T22:46:36.929Z,5.5
2022-11-24T22:52:27.687Z,5.9
2022-11-24T22:58:18.247Z,5.9
2022-11-24T23:04:10.643Z,5.9
2022-11-24T23:10:06.697Z,5.2
2022-11-24T23:15:57.144Z,5.7
2022-11-24T23:21:49.064Z,6.1
2022-11-24T23:27:40.564Z,6.2
2022-11-24T23:33:31.798Z,5.6
2022-11-24T23:39:25.332Z,5.5
2022-11-24T23:45:15.918Z,5.4
2022-11-24T23:51:09.848Z,5.9
2022-11-24T23:57:03.698Z,6.5
